sensor_id;sensor_type;location;lat;lon;timestamp;pressure;altitude;pressure_sealevel;temperature;humidity
39083;BME280;24834;44.444;26.098;2023-08-31T04:16:43;99932.13;;;23.95;
39083;BME280;24834;44.444;26.098;2023-08-31T04:22:47;99941.31;;;24.05;
39083;BME280;24834;44.444;26.098;2023-08-31T04:28:49;99950.56;;;23.93;
39083;BME280;24834;44.444;26.098;2023-08-31T04:34:52;99953.63;;;23.88;
39083;BME280;24834;44.444;26.098;2023-08-31T04:40:58;99960.53;;;23.89;
39083;BME280;24834;44.444;26.098;2023-08-31T04:47:04;99956.66;;;23.90;
39083;BME280;24834;44.444;26.098;2023-08-31T04:53:07;99965.91;;;23.75;
39083;BME280;24834;44.444;26.098;2023-08-31T04:59:10;99970.09;;;23.69;
39083;BME280;24834;44.444;26.098;2023-08-31T05:05:13;99985.06;;;23.63;
39083;BME280;24834;44.444;26.098;2023-08-31T05:11:18;99991.53;;;23.48;
39083;BME280;24834;44.444;26.098;2023-08-31T05:17:21;99978.09;;;23.44;
39083;BME280;24834;44.444;26.098;2023-08-31T05:23:26;99979.69;;;23.74;
39083;BME280;24834;44.444;26.098;2023-08-31T05:29:29;99987.38;;;23.96;
39083;BME280;24834;44.444;26.098;2023-08-31T05:35:32;99991.19;;;24.31;
39083;BME280;24834;44.444;26.098;2023-08-31T05:41:42;99991.16;;;24.41;
39083;BME280;24834;44.444;26.098;2023-08-31T05:47:46;99988.41;;;24.66;
39083;BME280;24834;44.444;26.098;2023-08-31T05:53:49;100001.03;;;24.83;
39083;BME280;24834;44.444;26.098;2023-08-31T05:59:51;100006.69;;;25.06;
39083;BME280;24834;44.444;26.098;2023-08-31T06:05:54;100022.75;;;25.27;
39083;BME280;24834;44.444;26.098;2023-08-31T06:11:59;100031.03;;;25.54;
39083;BME280;24834;44.444;26.098;2023-08-31T06:18:07;100035.78;;;25.91;
39083;BME280;24834;44.444;26.098;2023-08-31T06:24:11;100022.47;;;26.51;
39083;BME280;24834;44.444;26.098;2023-08-31T06:30:17;100025.63;;;27.10;
39083;BME280;24834;44.444;26.098;2023-08-31T06:36:23;100029.63;;;26.98;
39083;BME280;24834;44.444;26.098;2023-08-31T06:42:27;100029.34;;;26.89;
39083;BME280;24834;44.444;26.098;2023-08-31T06:48:30;100048.34;;;27.12;
39083;BME280;24834;44.444;26.098;2023-08-31T06:54:32;100053.19;;;26.94;
39083;BME280;24834;44.444;26.098;2023-08-31T07:00:38;100063.56;;;27.29;
39083;BME280;24834;44.444;26.098;2023-08-31T07:06:44;100066.31;;;27.53;
39083;BME280;24834;44.444;26.098;2023-08-31T07:12:51;100064.31;;;28.26;
39083;BME280;24834;44.444;26.098;2023-08-31T07:18:55;100073.28;;;28.00;
39083;BME280;24834;44.444;26.098;2023-08-31T07:24:57;100073.91;;;28.31;
39083;BME280;24834;44.444;26.098;2023-08-31T07:31:06;100061.44;;;28.56;
39083;BME280;24834;44.444;26.098;2023-08-31T07:37:09;100075.78;;;28.53;
39083;BME280;24834;44.444;26.098;2023-08-31T07:43:11;100080.78;;;28.74;
39083;BME280;24834;44.444;26.098;2023-08-31T07:49:14;100061.19;;;28.67;
39083;BME280;24834;44.444;26.098;2023-08-31T07:55:16;100080.72;;;29.14;
39083;BME280;24834;44.444;26.098;2023-08-31T08:01:19;100089.50;;;29.01;
39083;BME280;24834;44.444;26.098;2023-08-31T08:07:27;100089.97;;;29.32;
39083;BME280;24834;44.444;26.098;2023-08-31T08:13:30;100086.16;;;29.30;
39083;BME280;24834;44.444;26.098;2023-08-31T08:19:33;100090.72;;;29.49;
39083;BME280;24834;44.444;26.098;2023-08-31T08:25:37;100078.72;;;29.82;
39083;BME280;24834;44.444;26.098;2023-08-31T08:31:43;100080.50;;;29.88;
39083;BME280;24834;44.444;26.098;2023-08-31T08:37:46;100075.13;;;30.01;
39083;BME280;24834;44.444;26.098;2023-08-31T08:43:51;100075.31;;;29.94;
39083;BME280;24834;44.444;26.098;2023-08-31T08:49:55;100086.00;;;30.30;
39083;BME280;24834;44.444;26.098;2023-08-31T08:56:04;100080.66;;;30.26;
39083;BME280;24834;44.444;26.098;2023-08-31T09:02:10;100082.53;;;30.83;
39083;BME280;24834;44.444;26.098;2023-08-31T09:08:14;100078.84;;;30.36;
39083;BME280;24834;44.444;26.098;2023-08-31T09:14:20;100083.03;;;30.65;
39083;BME280;24834;44.444;26.098;2023-08-31T09:20:26;100071.63;;;30.70;
39083;BME280;24834;44.444;26.098;2023-08-31T09:26:28;100080.59;;;30.96;
39083;BME280;24834;44.444;26.098;2023-08-31T09:32:35;100066.78;;;30.78;
39083;BME280;24834;44.444;26.098;2023-08-31T09:38:42;100061.56;;;30.96;
39083;BME280;24834;44.444;26.098;2023-08-31T09:44:49;100051.66;;;30.89;
39083;BME280;24834;44.444;26.098;2023-08-31T09:51:07;100059.47;;;31.38;
39083;BME280;24834;44.444;26.098;2023-08-31T09:57:13;100056.66;;;30.66;
39083;BME280;24834;44.444;26.098;2023-08-31T10:03:20;100055.09;;;31.65;
39083;BME280;24834;44.444;26.098;2023-08-31T10:09:24;100063.16;;;32.12;
39083;BME280;24834;44.444;26.098;2023-08-31T10:15:37;100068.22;;;32.53;
39083;BME280;24834;44.444;26.098;2023-08-31T10:21:40;100070.63;;;32.42;
39083;BME280;24834;44.444;26.098;2023-08-31T10:27:45;100062.94;;;32.89;
39083;BME280;24834;44.444;26.098;2023-08-31T10:34:04;100060.00;;;32.75;
39083;BME280;24834;44.444;26.098;2023-08-31T10:40:11;100060.81;;;32.54;
39083;BME280;24834;44.444;26.098;2023-08-31T10:52:42;100059.63;;;32.85;
39083;BME280;24834;44.444;26.098;2023-08-31T10:59:01;100056.06;;;32.45;
39083;BME280;24834;44.444;26.098;2023-08-31T11:05:18;100062.19;;;32.49;
39083;BME280;24834;44.444;26.098;2023-08-31T11:11:26;100061.16;;;32.86;
39083;BME280;24834;44.444;26.098;2023-08-31T11:17:31;100051.69;;;33.27;
39083;BME280;24834;44.444;26.098;2023-08-31T11:23:41;100045.34;;;33.57;
39083;BME280;24834;44.444;26.098;2023-08-31T11:29:46;100036.38;;;34.11;
39083;BME280;24834;44.444;26.098;2023-08-31T11:35:49;100039.75;;;33.70;
39083;BME280;24834;44.444;26.098;2023-08-31T11:41:54;100036.28;;;34.29;
39083;BME280;24834;44.444;26.098;2023-08-31T11:47:57;100020.88;;;34.08;
39083;BME280;24834;44.444;26.098;2023-08-31T11:54:03;100024.56;;;33.87;
39083;BME280;24834;44.444;26.098;2023-08-31T12:00:08;100036.38;;;33.21;
39083;BME280;24834;44.444;26.098;2023-08-31T12:06:18;100034.56;;;33.27;
39083;BME280;24834;44.444;26.098;2023-08-31T12:12:24;100008.22;;;33.60;
39083;BME280;24834;44.444;26.098;2023-08-31T12:18:30;100032.31;;;33.61;
39083;BME280;24834;44.444;26.098;2023-08-31T12:24:41;100036.56;;;33.71;
39083;BME280;24834;44.444;26.098;2023-08-31T12:30:51;100023.38;;;33.70;
39083;BME280;24834;44.444;26.098;2023-08-31T12:36:55;100010.03;;;33.72;
39083;BME280;24834;44.444;26.098;2023-08-31T12:43:01;100006.09;;;33.73;
39083;BME280;24834;44.444;26.098;2023-08-31T12:49:06;100006.41;;;33.30;
39083;BME280;24834;44.444;26.098;2023-08-31T12:55:11;100015.03;;;33.37;
39083;BME280;24834;44.444;26.098;2023-08-31T13:01:14;100005.16;;;33.13;
39083;BME280;24834;44.444;26.098;2023-08-31T13:07:16;99998.38;;;33.35;
39083;BME280;24834;44.444;26.098;2023-08-31T13:13:21;100007.47;;;33.14;
39083;BME280;24834;44.444;26.098;2023-08-31T13:19:25;100001.50;;;32.98;
39083;BME280;24834;44.444;26.098;2023-08-31T13:25:31;100000.28;;;32.80;
39083;BME280;24834;44.444;26.098;2023-08-31T13:31:33;100004.13;;;33.28;
39083;BME280;24834;44.444;26.098;2023-08-31T13:37:40;100001.81;;;32.90;
39083;BME280;24834;44.444;26.098;2023-08-31T13:43:43;99999.09;;;33.00;
39083;BME280;24834;44.444;26.098;2023-08-31T13:49:45;100013.81;;;33.38;
39083;BME280;24834;44.444;26.098;2023-08-31T13:55:47;100003.09;;;33.35;
39083;BME280;24834;44.444;26.098;2023-08-31T14:01:50;100017.16;;;33.51;
39083;BME280;24834;44.444;26.098;2023-08-31T14:07:55;100010.38;;;33.47;
39083;BME280;24834;44.444;26.098;2023-08-31T14:14:04;100007.47;;;33.59;
39083;BME280;24834;44.444;26.098;2023-08-31T14:20:13;100014.59;;;33.66;
39083;BME280;24834;44.444;26.098;2023-08-31T14:26:15;100017.00;;;33.55;
39083;BME280;24834;44.444;26.098;2023-08-31T14:32:19;100011.56;;;33.37;
39083;BME280;24834;44.444;26.098;2023-08-31T14:38:22;100004.06;;;32.74;
39083;BME280;24834;44.444;26.098;2023-08-31T14:44:25;100013.19;;;32.58;
39083;BME280;24834;44.444;26.098;2023-08-31T14:50:27;100015.69;;;32.74;
39083;BME280;24834;44.444;26.098;2023-08-31T14:56:29;100012.16;;;32.65;
39083;BME280;24834;44.444;26.098;2023-08-31T15:02:32;100014.22;;;32.52;
39083;BME280;24834;44.444;26.098;2023-08-31T15:08:37;100021.41;;;32.67;
39083;BME280;24834;44.444;26.098;2023-08-31T15:14:41;100019.09;;;32.26;
39083;BME280;24834;44.444;26.098;2023-08-31T15:20:44;100007.16;;;32.33;
39083;BME280;24834;44.444;26.098;2023-08-31T15:26:47;99996.19;;;32.15;
39083;BME280;24834;44.444;26.098;2023-08-31T15:32:49;100002.22;;;31.88;
39083;BME280;24834;44.444;26.098;2023-08-31T15:38:52;99990.16;;;31.89;
39083;BME280;24834;44.444;26.098;2023-08-31T15:44:54;99997.66;;;31.85;
39083;BME280;24834;44.444;26.098;2023-08-31T15:50:58;99991.78;;;31.65;
39083;BME280;24834;44.444;26.098;2023-08-31T15:57:02;99990.03;;;31.71;
39083;BME280;24834;44.444;26.098;2023-08-31T16:03:07;99983.31;;;31.63;
39083;BME280;24834;44.444;26.098;2023-08-31T16:09:11;99982.81;;;31.43;
39083;BME280;24834;44.444;26.098;2023-08-31T16:15:15;99996.25;;;31.25;
39083;BME280;24834;44.444;26.098;2023-08-31T16:21:18;100013.09;;;31.07;
39083;BME280;24834;44.444;26.098;2023-08-31T16:27:21;100011.72;;;30.90;
39083;BME280;24834;44.444;26.098;2023-08-31T16:33:23;100019.00;;;30.80;
39083;BME280;24834;44.444;26.098;2023-08-31T16:39:27;100037.44;;;30.60;
39083;BME280;24834;44.444;26.098;2023-08-31T16:45:29;100047.25;;;30.29;
39083;BME280;24834;44.444;26.098;2023-08-31T16:51:32;100055.25;;;30.20;
39083;BME280;24834;44.444;26.098;2023-08-31T16:57:34;100062.47;;;30.11;
39083;BME280;24834;44.444;26.098;2023-08-31T17:03:37;100066.41;;;29.93;
39083;BME280;24834;44.444;26.098;2023-08-31T17:09:41;100067.22;;;29.78;
39083;BME280;24834;44.444;26.098;2023-08-31T17:15:43;100073.28;;;29.66;
39083;BME280;24834;44.444;26.098;2023-08-31T17:21:47;100082.88;;;29.54;
39083;BME280;24834;44.444;26.098;2023-08-31T17:27:49;100095.16;;;29.43;
39083;BME280;24834;44.444;26.098;2023-08-31T17:33:52;100102.25;;;29.37;
39083;BME280;24834;44.444;26.098;2023-08-31T17:39:58;100117.97;;;29.26;
39083;BME280;24834;44.444;26.098;2023-08-31T17:46:01;100135.16;;;29.19;
39083;BME280;24834;44.444;26.098;2023-08-31T17:52:05;100143.88;;;29.11;
39083;BME280;24834;44.444;26.098;2023-08-31T17:58:08;100142.25;;;28.93;
39083;BME280;24834;44.444;26.098;2023-08-31T18:04:11;100162.19;;;28.83;
39083;BME280;24834;44.444;26.098;2023-08-31T18:10:15;100174.31;;;28.75;
39083;BME280;24834;44.444;26.098;2023-08-31T18:16:19;100175.28;;;28.65;
39083;BME280;24834;44.444;26.098;2023-08-31T18:22:24;100194.34;;;28.58;
39083;BME280;24834;44.444;26.098;2023-08-31T18:28:28;100206.50;;;28.50;
39083;BME280;24834;44.444;26.098;2023-08-31T18:34:34;100206.19;;;28.45;
39083;BME280;24834;44.444;26.098;2023-08-31T18:40:36;100219.88;;;28.34;
39083;BME280;24834;44.444;26.098;2023-08-31T18:46:39;100211.69;;;28.14;
39083;BME280;24834;44.444;26.098;2023-08-31T18:52:42;100230.44;;;28.02;
39083;BME280;24834;44.444;26.098;2023-08-31T18:58:46;100234.03;;;27.92;
39083;BME280;24834;44.444;26.098;2023-08-31T19:04:49;100245.00;;;27.81;
39083;BME280;24834;44.444;26.098;2023-08-31T19:10:55;100266.69;;;27.78;
39083;BME280;24834;44.444;26.098;2023-08-31T19:16:59;100263.31;;;27.67;
39083;BME280;24834;44.444;26.098;2023-08-31T19:23:01;100269.31;;;27.51;
39083;BME280;24834;44.444;26.098;2023-08-31T19:29:06;100267.19;;;27.36;
39083;BME280;24834;44.444;26.098;2023-08-31T19:35:08;100255.03;;;27.17;
39083;BME280;24834;44.444;26.098;2023-08-31T19:41:31;100274.81;;;27.03;
39083;BME280;24834;44.444;26.098;2023-08-31T19:47:35;100284.56;;;26.90;
39083;BME280;24834;44.444;26.098;2023-08-31T19:53:37;100293.88;;;26.86;
39083;BME280;24834;44.444;26.098;2023-08-31T19:59:42;100307.44;;;26.75;
39083;BME280;24834;44.444;26.098;2023-08-31T20:05:45;100304.81;;;26.68;
39083;BME280;24834;44.444;26.098;2023-08-31T20:11:47;100315.97;;;26.67;
39083;BME280;24834;44.444;26.098;2023-08-31T20:17:49;100318.38;;;26.54;
39083;BME280;24834;44.444;26.098;2023-08-31T20:23:55;100324.53;;;26.51;
39083;BME280;24834;44.444;26.098;2023-08-31T20:30:00;100321.19;;;26.36;
39083;BME280;24834;44.444;26.098;2023-08-31T20:36:07;100328.16;;;26.27;
39083;BME280;24834;44.444;26.098;2023-08-31T20:42:10;100342.84;;;26.15;
39083;BME280;24834;44.444;26.098;2023-08-31T20:48:15;100350.59;;;26.06;
39083;BME280;24834;44.444;26.098;2023-08-31T20:54:20;100344.03;;;26.11;
39083;BME280;24834;44.444;26.098;2023-08-31T21:00:25;100340.22;;;25.98;
39083;BME280;24834;44.444;26.098;2023-08-31T21:06:28;100351.34;;;26.03;
39083;BME280;24834;44.444;26.098;2023-08-31T21:12:31;100351.81;;;25.95;
39083;BME280;24834;44.444;26.098;2023-08-31T21:18:34;100360.66;;;25.85;
39083;BME280;24834;44.444;26.098;2023-08-31T21:24:38;100362.97;;;25.83;
39083;BME280;24834;44.444;26.098;2023-08-31T21:30:42;100354.91;;;25.72;
39083;BME280;24834;44.444;26.098;2023-08-31T21:36:45;100370.69;;;25.66;
39083;BME280;24834;44.444;26.098;2023-08-31T21:42:47;100376.88;;;25.63;
39083;BME280;24834;44.444;26.098;2023-08-31T21:48:49;100380.69;;;25.69;
39083;BME280;24834;44.444;26.098;2023-08-31T21:54:54;100378.78;;;25.77;
39083;BME280;24834;44.444;26.098;2023-08-31T22:00:56;100386.09;;;25.69;
39083;BME280;24834;44.444;26.098;2023-08-31T22:06:58;100381.47;;;25.66;
39083;BME280;24834;44.444;26.098;2023-08-31T22:13:01;100388.03;;;25.62;
39083;BME280;24834;44.444;26.098;2023-08-31T22:19:04;100386.50;;;25.57;
39083;BME280;24834;44.444;26.098;2023-08-31T22:25:09;100387.63;;;25.60;
39083;BME280;24834;44.444;26.098;2023-08-31T22:31:12;100383.78;;;25.61;
39083;BME280;24834;44.444;26.098;2023-08-31T22:37:16;100386.88;;;25.59;
39083;BME280;24834;44.444;26.098;2023-08-31T22:43:20;100386.13;;;25.55;
39083;BME280;24834;44.444;26.098;2023-08-31T22:49:24;100390.75;;;25.44;
39083;BME280;24834;44.444;26.098;2023-08-31T22:55:28;100403.41;;;25.37;
39083;BME280;24834;44.444;26.098;2023-08-31T23:01:30;100396.13;;;25.37;
39083;BME280;24834;44.444;26.098;2023-08-31T23:07:33;100411.50;;;25.26;
39083;BME280;24834;44.444;26.098;2023-08-31T23:13:36;100418.81;;;25.29;
39083;BME280;24834;44.444;26.098;2023-08-31T23:19:38;100425.38;;;25.28;
39083;BME280;24834;44.444;26.098;2023-08-31T23:25:40;100412.66;;;25.22;
39083;BME280;24834;44.444;26.098;2023-08-31T23:31:44;100414.56;;;25.14;
39083;BME280;24834;44.444;26.098;2023-08-31T23:37:54;100413.78;;;25.14;
39083;BME280;24834;44.444;26.098;2023-08-31T23:43:57;100416.09;;;25.08;
39083;BME280;24834;44.444;26.098;2023-08-31T23:49:59;100418.41;;;25.10;
39083;BME280;24834;44.444;26.098;2023-08-31T23:56:05;100415.69;;;25.06;
